Villanueva de Castellon, Spain
Current Conditions -  °F | °C
As of 10:30 AM on Friday 24 Oct 2014 (Local Time) from LEVC Reporting Station
Clear Clear  
Wind Chill: 68°   Ceiling: Unl
Heat Index: 68°   Visibility: 6mi
Dew Point: 39°   Wind: 7mph
Humidity: 35%   Direction: 250°WSW
Pressure: 30.06"   Gusts: NA
Location:  39.08°N, 0.51°W
Report Text: LEVC 240830Z 25006KT CAVOK 20/04 Q1018 NOSIG
Loading
Personal Weather Stations






























Interactive Weather Map
Tropical Storm Tracking
New forecast layout! Learn more

10-Day Weather Forecast

Advertisements
Track Severe Weather on mobile